»·PEaware :: N196EC KSAN-L17

N196EC :: KSAN-L17

FLIGHT INFORMATION

Flight Status: Arrived
Operator: Privately registered:
United States
More flights under this callsign
Pilot: Adrián R. (20842)
Aircraft: SOCATA TBM-900
(TBM9)
More flights by this aircraft type
Origin: KSAN San Diego Intl-Lindbergh
United States
Destination: L17 Taft-Kern Co
United States
More flights between these airports :: More routes between these airports
Route: CWARD2 LAX V23 GMN
File this flight plan on PilotEdge
Remarks:
Altitude:
(Current/Filed)
16,000ft
Speed:
(Current/Filed)
179kts
Departed: 25-Nov-18 08:23 AM
Arrived: 25-Nov-18 09:13 AM
Distance/Time
Traveled:
183nm/0:50
Distance/Time
To Go:
Arrived

Flight Plot

Page will automatically refresh every two minutes.

Flight plan parsing failed; only flown route is shown


Map Options




Map Legend


Flown Route
Filed Route
Departure Airport
Arrival Airport
Navaid (VOR, NDB)
Fix

Horizontal Profiles

Position Reports

Time Latitude Longitude Heading Altitude Ground
Speed
25-Nov-18 07:57 32.732372 -117.177742 193 19ft 0kts
25-Nov-18 07:58 32.732372 -117.177742 193 19ft 0kts
25-Nov-18 07:59 32.732372 -117.177742 193 19ft 0kts
25-Nov-18 08:00 32.732372 -117.177742 193 19ft 0kts
25-Nov-18 08:01 32.732372 -117.177742 193 19ft 0kts
25-Nov-18 08:02 32.732372 -117.177742 193 19ft 0kts
25-Nov-18 08:03 32.732372 -117.177742 193 19ft 0kts
25-Nov-18 08:04 32.732372 -117.177742 193 19ft 0kts
25-Nov-18 08:05 32.732372 -117.177742 193 19ft 0kts
25-Nov-18 08:06 32.732372 -117.177742 193 19ft 0kts
25-Nov-18 08:07 32.732372 -117.177742 193 19ft 0kts
25-Nov-18 08:08 32.732372 -117.177742 193 19ft 0kts
25-Nov-18 08:09 32.732372 -117.177742 193 19ft 0kts
25-Nov-18 08:10 32.732372 -117.177742 193 19ft 0kts
25-Nov-18 08:11 32.732372 -117.177742 193 19ft 0kts
25-Nov-18 08:12 32.732372 -117.177742 194 19ft 0kts
25-Nov-18 08:13 32.732372 -117.177742 194 19ft 0kts
25-Nov-18 08:14 32.732372 -117.177742 194 19ft 0kts
25-Nov-18 08:15 32.732372 -117.177742 194 19ft 0kts
25-Nov-18 08:16 32.732372 -117.177742 194 19ft 0kts
25-Nov-18 08:17 32.732372 -117.177742 194 19ft 0kts
25-Nov-18 08:18 32.732372 -117.177742 194 19ft 0kts
25-Nov-18 08:19 32.732372 -117.177742 194 19ft 0kts
25-Nov-18 08:20 32.732372 -117.177742 194 19ft 0kts
25-Nov-18 08:21 32.732173 -117.177799 193 19ft 3kts
25-Nov-18 08:22 32.731327 -117.176459 112 22ft 7kts
25-Nov-18 08:23 32.731040 -117.175602 138 23ft 0kts
25-Nov-18 08:24 32.731040 -117.175602 138 23ft 0kts
25-Nov-18 08:25 32.730177 -117.175719 286 19ft 0kts
25-Nov-18 08:26 32.735959 -117.197130 303 707ft 133kts
25-Nov-18 08:27 32.756721 -117.236336 303 2775ft 154kts
25-Nov-18 08:28 32.779656 -117.280551 303 4757ft 161kts
25-Nov-18 08:29 32.804373 -117.325688 308 6796ft 167kts
25-Nov-18 08:30 32.832554 -117.369480 309 9159ft 169kts
25-Nov-18 08:31 32.861411 -117.414249 309 11308ft 175kts
25-Nov-18 08:32 32.891167 -117.460480 309 13534ft 179kts
25-Nov-18 08:33 32.926428 -117.515300 308 14019ft 243kts
25-Nov-18 08:34 32.967174 -117.578830 309 15567ft 214kts
25-Nov-18 08:35 33.006141 -117.639579 308 16012ft 254kts
25-Nov-18 08:36 33.050210 -117.708433 306 16020ft 267kts
25-Nov-18 08:37 33.103763 -117.770085 317 16019ft 272kts
25-Nov-18 08:38 33.161516 -117.828950 316 16019ft 275kts
25-Nov-18 08:39 33.228340 -117.870580 345 16026ft 282kts
25-Nov-18 08:40 33.305186 -117.889625 345 16024ft 282kts
25-Nov-18 08:41 33.381951 -117.909446 335 16013ft 281kts
25-Nov-18 08:42 33.442993 -117.964996 319 16027ft 276kts
25-Nov-18 08:43 33.503128 -118.021919 319 16025ft 276kts
25-Nov-18 08:44 33.563427 -118.079101 319 16021ft 276kts
25-Nov-18 08:45 33.623491 -118.136161 319 16019ft 276kts
25-Nov-18 08:46 33.683497 -118.193273 319 16021ft 276kts
25-Nov-18 08:47 33.743535 -118.250519 319 16024ft 276kts
25-Nov-18 08:48 33.803546 -118.307845 319 16026ft 276kts
25-Nov-18 08:49 33.863407 -118.365131 319 16026ft 276kts
25-Nov-18 08:50 33.923280 -118.422539 319 16026ft 276kts
25-Nov-18 08:51 33.993297 -118.461343 335 16027ft 279kts
25-Nov-18 08:52 34.065081 -118.496438 335 16026ft 279kts
25-Nov-18 08:53 34.136392 -118.531349 335 16025ft 279kts
25-Nov-18 08:54 34.207963 -118.566453 335 16025ft 279kts
25-Nov-18 08:55 34.279812 -118.601768 335 16024ft 279kts
25-Nov-18 08:56 34.351875 -118.637234 335 16022ft 279kts
25-Nov-18 08:57 34.423176 -118.672376 334 16024ft 279kts
25-Nov-18 08:58 34.495531 -118.708144 335 15831ft 285kts
25-Nov-18 08:59 34.570533 -118.745298 335 14670ft 296kts
25-Nov-18 09:00 34.646906 -118.783183 335 13482ft 297kts
25-Nov-18 09:01 34.722989 -118.820999 335 12290ft 294kts
25-Nov-18 09:02 34.796413 -118.857970 329 11663ft 282kts
25-Nov-18 09:03 34.843530 -118.928565 305 11008ft 261kts
25-Nov-18 09:04 34.878427 -118.987622 305 10701ft 262kts
25-Nov-18 09:05 34.928871 -119.073438 306 9013ft 262kts
25-Nov-18 09:06 34.968072 -119.140275 306 8990ft 237kts
25-Nov-18 09:07 35.000597 -119.195841 306 8990ft 243kts
25-Nov-18 09:08 35.038349 -119.260459 306 7919ft 219kts
25-Nov-18 09:09 35.088828 -119.296040 343 6933ft 134kts
25-Nov-18 09:10 35.118600 -119.305978 348 5314ft 141kts
25-Nov-18 09:11 35.157793 -119.316913 327 3531ft 130kts
25-Nov-18 09:12 35.157022 -119.350713 252 2430ft 95kts
25-Nov-18 09:13 35.150427 -119.381185 258 1861ft 93kts
25-Nov-18 09:14 35.145636 -119.411634 258 1265ft 89kts
25-Nov-18 09:15 35.141465 -119.439371 260 830ft 46kts
25-Nov-18 09:16 35.140667 -119.444408 258 830ft 8kts
25-Nov-18 09:17 35.141078 -119.444834 46 830ft 0kts
25-Nov-18 09:18 35.141078 -119.444834 46 830ft 0kts
25-Nov-18 09:19 35.141078 -119.444834 46 830ft 0kts
25-Nov-18 09:20 35.141078 -119.444834 46 830ft 0kts
25-Nov-18 09:21 35.141078 -119.444834 46 830ft 0kts
25-Nov-18 09:22 35.141078 -119.444834 46 830ft 0kts
25-Nov-18 09:23 35.141078 -119.444834 46 830ft 0kts
25-Nov-18 09:24 35.141078 -119.444834 46 830ft 0kts
25-Nov-18 09:25 35.141078 -119.444834 46 830ft 0kts
25-Nov-18 09:26 35.141078 -119.444834 46 830ft 0kts
25-Nov-18 09:27 35.141078 -119.444834 46 830ft 0kts
25-Nov-18 09:28 35.141078 -119.444834 46 830ft 0kts
25-Nov-18 09:29 35.141078 -119.444834 46 830ft 0kts
25-Nov-18 09:30 35.141078 -119.444834 46 830ft 0kts

Navigation Log

Ident Type
Flight plan parsing failed, navigation log unavailable